Sukari Primero — EAAU — position and weather

sailwx.info

Track history (hours):
 
Tides and Currents Weather Stations Pressure Air Temp Water Temp Dewpoint Dewpoint Depression Visibility Wind Speed Wind Dir Waves Ship Positions

Sukari Primero

Last reported at 2018-Apr-17 02:04 UTC. Time now 2018-Apr-24 16:26 UTC.
Position N 45°57' W 002°54'.

Length 31 m.

Type: Fishing. MMSI: 224052970.

Date/timePositionNaut miles runAvg speedWind from/ knotsBaromVisibWave heightAir tempDewpointWater temp
2018-Apr-17 02:04N 45°57' W 002°54'0 4.8
2018-Apr-17 02:00N 45°57' W 002°54'  
2018-Apr-14 13:53N 47°57' W 004°42'4 9.5
2018-Apr-14 13:30N 48°00' W 004°45'4 7.4
2018-Apr-14 13:00N 48°04' W 004°46'4 9.0
2018-Apr-14 12:30N 48°06' W 004°40'5 9.2
2018-Apr-14 12:00N 48°07' W 004°33'5 9.3
2018-Apr-14 11:30N 48°07' W 004°26'4 7.8
2018-Apr-14 11:00N 48°07' W 004°20'1 1.7
2018-Apr-14 10:30N 48°06' W 004°19'0 0.0
2018-Apr-14 10:00N 48°06' W 004°19'0 0.0
2018-Apr-14 09:31N 48°06' W 004°19'0 0.0
2018-Apr-14 09:00N 48°06' W 004°19'0 0.0
2018-Apr-14 08:30N 48°06' W 004°19'0 0.0
2018-Apr-14 08:00N 48°06' W 004°19'0 0.0
2018-Apr-14 07:30N 48°06' W 004°19'0 0.0
2018-Apr-14 07:01N 48°06' W 004°19'0 0.0
2018-Apr-14 06:30N 48°06' W 004°19'0 0.0
2018-Apr-14 06:00N 48°06' W 004°19'0 0.0
2018-Apr-14 05:30N 48°06' W 004°19'0 0.0
2018-Apr-14 05:00N 48°06' W 004°19'0 0.0
2018-Apr-14 04:30N 48°06' W 004°19'0 0.0
2018-Apr-14 04:00N 48°06' W 004°19'0 0.0
2018-Apr-14 03:30N 48°06' W 004°19'0 0.0
2018-Apr-14 03:00N 48°06' W 004°19'0 0.0
2018-Apr-14 02:30N 48°06' W 004°19'0 0.0
2018-Apr-14 02:00N 48°06' W 004°19'0 0.0
2018-Apr-14 01:31N 48°06' W 004°19'1 1.3
2018-Apr-14 00:56N 48°07' W 004°20'4 9.9
2018-Apr-14 00:30N 48°07' W 004°26'510.7
2018-Apr-14 00:00N 48°06' W 004°34'510.7
2018-Apr-13 23:30N 48°06' W 004°42'611.5
2018-Apr-13 23:00N 48°01' W 004°47'611.4
2018-Apr-13 22:30N 47°56' W 004°50'510.4
2018-Apr-13 21:58N 47°50' W 004°53'1110.1
2018-Apr-13 20:53N 47°40' W 004°58'16 0.5
2018-Apr-12 11:58N 47°25' W 005°09'3 0.6
2018-Apr-12 06:43N 47°24' W 005°14'4 0.8
2018-Apr-12 01:31N 47°25' W 005°20'1 3.0
2018-Apr-12 01:05N 47°25' W 005°18'1 6.4
2018-Apr-12 00:58N 47°25' W 005°17'4 1.0
2018-Apr-11 20:53N 47°22' W 005°14'6 0.9
2018-Apr-11 14:46N 47°20' W 005°06'  
Track history (hours):
 
Tides and Currents Weather Stations Pressure Air Temp Water Temp Dewpoint Dewpoint Depression Visibility Wind Speed Wind Dir Waves Ship Positions

Sukari Primero

Last reported at 2018-Apr-17 02:04 UTC. Time now 2018-Apr-24 16:26 UTC.
Position N 45°57' W 002°54'.

Length 31 m.

Type: Fishing. MMSI: 224052970.

Date/timePositionNaut miles runAvg speedWind from/ knotsBaromVisibWave heightAir tempDewpointWater temp
2018-Apr-17 02:04N 45°57' W 002°54'0 4.8
2018-Apr-17 02:00N 45°57' W 002°54'  
2018-Apr-14 13:53N 47°57' W 004°42'4 9.5
2018-Apr-14 13:30N 48°00' W 004°45'4 7.4
2018-Apr-14 13:00N 48°04' W 004°46'4 9.0
2018-Apr-14 12:30N 48°06' W 004°40'5 9.2
2018-Apr-14 12:00N 48°07' W 004°33'5 9.3
2018-Apr-14 11:30N 48°07' W 004°26'4 7.8
2018-Apr-14 11:00N 48°07' W 004°20'1 1.7
2018-Apr-14 10:30N 48°06' W 004°19'0 0.0
2018-Apr-14 10:00N 48°06' W 004°19'0 0.0
2018-Apr-14 09:31N 48°06' W 004°19'0 0.0
2018-Apr-14 09:00N 48°06' W 004°19'0 0.0
2018-Apr-14 08:30N 48°06' W 004°19'0 0.0
2018-Apr-14 08:00N 48°06' W 004°19'0 0.0
2018-Apr-14 07:30N 48°06' W 004°19'0 0.0
2018-Apr-14 07:01N 48°06' W 004°19'0 0.0
2018-Apr-14 06:30N 48°06' W 004°19'0 0.0
2018-Apr-14 06:00N 48°06' W 004°19'0 0.0
2018-Apr-14 05:30N 48°06' W 004°19'0 0.0
2018-Apr-14 05:00N 48°06' W 004°19'0 0.0
2018-Apr-14 04:30N 48°06' W 004°19'0 0.0
2018-Apr-14 04:00N 48°06' W 004°19'0 0.0
2018-Apr-14 03:30N 48°06' W 004°19'0 0.0
2018-Apr-14 03:00N 48°06' W 004°19'0 0.0
2018-Apr-14 02:30N 48°06' W 004°19'0 0.0
2018-Apr-14 02:00N 48°06' W 004°19'0 0.0
2018-Apr-14 01:31N 48°06' W 004°19'1 1.3
2018-Apr-14 00:56N 48°07' W 004°20'4 9.9
2018-Apr-14 00:30N 48°07' W 004°26'510.7
2018-Apr-14 00:00N 48°06' W 004°34'510.7
2018-Apr-13 23:30N 48°06' W 004°42'611.5
2018-Apr-13 23:00N 48°01' W 004°47'611.4
2018-Apr-13 22:30N 47°56' W 004°50'510.4
2018-Apr-13 21:58N 47°50' W 004°53'1110.1
2018-Apr-13 20:53N 47°40' W 004°58'16 0.5
2018-Apr-12 11:58N 47°25' W 005°09'3 0.6
2018-Apr-12 06:43N 47°24' W 005°14'4 0.8
2018-Apr-12 01:31N 47°25' W 005°20'1 3.0
2018-Apr-12 01:05N 47°25' W 005°18'1 6.4
2018-Apr-12 00:58N 47°25' W 005°17'4 1.0
2018-Apr-11 20:53N 47°22' W 005°14'6 0.9
2018-Apr-11 14:46N 47°20' W 005°06'  

Dump ship's entire track history